高雄國際航空站 - 塔台/地面席

METAR RCKH 140330Z 29010KT 9999 FEW016 SCT034 32/23 Q1007 NOSIG RMK A2974=

站台狀態:Offline
最後更新:2022-08-14 11:30:02